Time;durP1;ratioP1;P1;durP2;ratioP2;P2;SDS_P1;SDS_P2;PMS_P1;PMS_P2;Temp;Humidity;BMP_temperature;BMP_pressure;BME280_temperature;BME280_humidity;BME280_pressure;Samples;Min_cycle;Max_cycle;Signal;HPM_P1;HPM_P2
2023/01/16 00:00:57;;;;;;;7.68;4.80;;;5.80;99.90;;;;;;5077552;27;20672;-82
2023/01/16 00:03:23;;;;;;;9.50;5.22;;;5.70;99.90;;;;;;5110495;27;20256;-82
2023/01/16 00:05:49;;;;;;;9.80;5.32;;;5.80;99.90;;;;;;5108937;27;20290;-84
2023/01/16 00:08:15;;;;;;;7.50;4.70;;;5.70;99.90;;;;;;5110282;27;20185;-82
2023/01/16 00:10:40;;;;;;;10.88;4.78;;;5.70;99.90;;;;;;5093775;27;20470;-83
2023/01/16 00:13:06;;;;;;;7.75;4.68;;;5.70;99.90;;;;;;5111442;27;20192;-82
2023/01/16 00:15:32;;;;;;;8.82;5.53;;;5.70;99.90;;;;;;5111130;27;20637;-83
2023/01/16 00:17:58;;;;;;;8.57;5.70;;;5.60;99.90;;;;;;5095754;27;20252;-83
2023/01/16 00:20:24;;;;;;;10.65;5.13;;;5.80;99.90;;;;;;5099029;27;20185;-82
2023/01/16 00:22:50;;;;;;;7.43;5.50;;;5.70;99.90;;;;;;5109871;27;20538;-83
2023/01/16 00:25:16;;;;;;;9.52;5.75;;;5.70;99.90;;;;;;5094929;27;20510;-84
2023/01/16 00:27:41;;;;;;;9.85;5.60;;;5.70;99.90;;;;;;5110610;27;20628;-82
2023/01/16 00:30:08;;;;;;;8.93;5.85;;;5.70;99.90;;;;;;5108974;27;20192;-85
2023/01/16 00:32:34;;;;;;;10.65;6.35;;;5.70;99.90;;;;;;5097250;27;20225;-82
2023/01/16 00:35:00;;;;;;;8.38;5.50;;;5.70;99.90;;;;;;5110970;27;20245;-82
2023/01/16 00:37:25;;;;;;;9.50;5.80;;;5.70;99.90;;;;;;5073238;27;20192;-86
2023/01/16 00:39:51;;;;;;;11.80;5.93;;;5.70;99.90;;;;;;5095051;27;20191;-82
2023/01/16 00:42:18;;;;;;;8.50;5.45;;;5.70;99.90;;;;;;5106180;27;20189;-85
2023/01/16 00:44:44;;;;;;;10.07;5.00;;;5.70;99.90;;;;;;5094120;27;20300;-82
2023/01/16 00:47:10;;;;;;;8.35;5.25;;;5.60;99.90;;;;;;5089647;27;21717;-83
2023/01/16 00:49:36;;;;;;;8.85;5.40;;;5.60;99.90;;;;;;5111120;27;20251;-84
2023/01/16 00:52:03;;;;;;;11.15;5.32;;;5.60;99.90;;;;;;5109385;27;20192;-86
2023/01/16 00:54:29;;;;;;;9.60;5.03;;;5.60;99.90;;;;;;5107297;27;20181;-83
2023/01/16 00:56:55;;;;;;;6.55;4.32;;;5.60;99.90;;;;;;5107501;27;20192;-85
2023/01/16 00:59:20;;;;;;;7.07;4.65;;;5.50;99.90;;;;;;5108885;27;20191;-83
2023/01/16 01:01:47;;;;;;;8.88;4.35;;;5.50;99.90;;;;;;5096552;27;21231;-84
2023/01/16 01:04:12;;;;;;;10.27;4.70;;;5.50;99.90;;;;;;5110926;27;20192;-85
2023/01/16 01:06:39;;;;;;;10.13;4.45;;;5.40;99.90;;;;;;5107352;27;20209;-82
2023/01/16 01:09:05;;;;;;;9.55;4.18;;;5.40;99.90;;;;;;5094975;27;20202;-83
2023/01/16 01:11:30;;;;;;;10.75;4.57;;;5.40;99.90;;;;;;5095105;27;20637;-84
2023/01/16 01:13:57;;;;;;;8.35;4.55;;;5.30;99.90;;;;;;5109476;27;20177;-84
2023/01/16 01:16:23;;;;;;;6.32;4.13;;;5.30;99.90;;;;;;5089529;27;20196;-85
2023/01/16 01:18:49;;;;;;;9.23;4.30;;;5.20;99.90;;;;;;5108677;27;20204;-82
2023/01/16 01:21:15;;;;;;;8.27;4.13;;;5.20;99.90;;;;;;5106853;27;20216;-83
2023/01/16 01:23:41;;;;;;;7.25;3.83;;;5.20;99.90;;;;;;5092511;27;20268;-86
2023/01/16 01:26:16;;;;;;;9.38;3.92;;;5.20;99.90;;;;;;5108148;27;20290;-83
2023/01/16 01:28:43;;;;;;;6.82;3.95;;;5.20;99.90;;;;;;5095939;27;20186;-82
2023/01/16 01:31:11;;;;;;;9.98;3.95;;;5.10;99.90;;;;;;5107873;27;20329;-82
2023/01/16 01:33:37;;;;;;;7.55;3.80;;;5.10;99.90;;;;;;5111370;27;20184;-82
2023/01/16 01:36:04;;;;;;;7.10;3.90;;;5.10;99.90;;;;;;5089289;28;20257;-85
2023/01/16 01:38:30;;;;;;;8.95;3.85;;;5.10;99.90;;;;;;5108493;28;20172;-82
2023/01/16 01:40:56;;;;;;;8.68;3.55;;;5.10;99.90;;;;;;5111995;27;20610;-82
2023/01/16 01:43:38;;;;;;;7.68;3.55;;;5.10;99.90;;;;;;5095412;28;20180;-82
2023/01/16 01:46:04;;;;;;;5.72;3.22;;;5.10;99.90;;;;;;5109450;28;20703;-84
2023/01/16 01:48:39;;;;;;;12.32;3.22;;;5.10;99.90;;;;;;5077375;28;20224;-83
2023/01/16 01:51:08;;;;;;;9.10;3.70;;;5.10;99.90;;;;;;5106744;28;20221;-82
2023/01/16 01:53:48;;;;;;;6.25;3.20;;;5.10;99.90;;;;;;5105722;28;20191;-85
2023/01/16 01:56:19;;;;;;;8.32;3.38;;;5.00;99.90;;;;;;5109340;27;20184;-81
2023/01/16 01:58:49;;;;;;;7.13;3.17;;;5.10;99.90;;;;;;5115383;27;20192;-85
2023/01/16 02:01:15;;;;;;;9.80;3.60;;;5.00;99.90;;;;;;5114954;27;20695;-85
2023/01/16 02:04:01;;;;;;;10.02;3.72;;;5.00;99.90;;;;;;5102255;27;20637;-83
2023/01/16 02:06:42;;;;;;;7.00;3.60;;;5.00;99.90;;;;;;5113060;27;20208;-83
2023/01/16 02:09:08;;;;;;;8.85;3.72;;;5.00;99.90;;;;;;5133882;27;21780;-83
2023/01/16 02:11:45;;;;;;;10.65;3.50;;;5.00;99.90;;;;;;5116252;27;20196;-84
2023/01/16 02:14:15;;;;;;;6.82;3.13;;;5.00;99.90;;;;;;5094284;27;20189;-84
2023/01/16 02:20:18;;;;;;;7.97;3.40;;;5.00;99.90;;;;;;5029584;27;20264;-84
2023/01/16 02:23:05;;;;;;;6.00;3.22;;;5.00;99.90;;;;;;5111995;27;20176;-84
2023/01/16 02:25:55;;;;;;;7.68;3.30;;;5.00;99.90;;;;;;5112419;27;20212;-83
2023/01/16 02:28:49;;;;;;;9.63;3.15;;;5.00;99.90;;;;;;5115583;27;20185;-83
2023/01/16 02:31:33;;;;;;;10.73;3.13;;;5.00;99.90;;;;;;5113758;27;21249;-85
2023/01/16 02:34:14;;;;;;;8.52;3.33;;;5.00;99.90;;;;;;5114879;27;20185;-83
2023/01/16 02:37:04;;;;;;;11.00;3.25;;;5.00;99.90;;;;;;5111976;27;20222;-85
2023/01/16 02:39:48;;;;;;;8.77;3.47;;;5.00;99.90;;;;;;5111967;27;20188;-83
2023/01/16 02:42:24;;;;;;;11.35;3.50;;;5.00;99.90;;;;;;5112223;27;20168;-84
2023/01/16 02:45:23;;;;;;;7.65;3.60;;;4.90;99.90;;;;;;5113122;27;20247;-83
2023/01/16 02:47:58;;;;;;;8.85;3.42;;;5.00;99.90;;;;;;5092990;27;20784;-84
2023/01/16 02:50:53;;;;;;;7.68;3.53;;;5.00;99.90;;;;;;5111803;27;20659;-82
2023/01/16 02:53:28;;;;;;;9.45;3.55;;;5.00;99.90;;;;;;5108983;27;20213;-83
2023/01/16 02:55:57;;;;;;;7.93;3.55;;;5.00;99.90;;;;;;5107696;27;20184;-83
2023/01/16 02:58:25;;;;;;;11.82;3.50;;;5.10;99.90;;;;;;5111579;27;20201;-83
2023/01/16 03:00:56;;;;;;;11.25;3.97;;;5.10;99.90;;;;;;5114565;27;20184;-82
2023/01/16 03:03:47;;;;;;;12.30;4.05;;;5.10;99.90;;;;;;5116883;27;20182;-83
2023/01/16 03:06:23;;;;;;;7.53;3.30;;;5.10;99.90;;;;;;5111098;27;20189;-84
2023/01/16 03:08:51;;;;;;;7.65;3.55;;;5.10;99.90;;;;;;5096225;27;20202;-83
2023/01/16 03:11:24;;;;;;;10.52;4.05;;;5.20;99.90;;;;;;5111341;27;20192;-83
2023/01/16 03:14:01;;;;;;;9.65;3.33;;;5.10;99.90;;;;;;5112534;27;20221;-83
2023/01/16 03:16:53;;;;;;;11.82;3.80;;;5.20;99.90;;;;;;5112329;27;20172;-83
2023/01/16 03:19:31;;;;;;;7.95;3.58;;;5.10;99.90;;;;;;5109891;27;20181;-85
2023/01/16 03:22:20;;;;;;;12.80;3.55;;;5.10;99.90;;;;;;5094535;27;20183;-86
2023/01/16 03:25:01;;;;;;;8.30;3.25;;;5.10;99.90;;;;;;5112907;27;20815;-84
2023/01/16 03:27:52;;;;;;;9.40;3.78;;;5.10;99.90;;;;;;5109380;27;20215;-84
2023/01/16 03:30:24;;;;;;;11.98;3.80;;;5.10;99.90;;;;;;5116934;27;20354;-83
2023/01/16 03:32:58;;;;;;;10.30;4.10;;;5.10;99.90;;;;;;5092975;27;20566;-83
2023/01/16 03:35:43;;;;;;;7.60;3.53;;;5.10;99.90;;;;;;5114137;27;20177;-83
2023/01/16 03:38:12;;;;;;;14.93;3.40;;;5.10;99.90;;;;;;5097293;27;20177;-83
2023/01/16 03:40:44;;;;;;;9.00;3.63;;;5.10;99.90;;;;;;5113304;27;20335;-83
2023/01/16 03:43:42;;;;;;;7.68;3.50;;;5.10;99.90;;;;;;5109535;27;20196;-84
2023/01/16 03:46:15;;;;;;;11.25;3.88;;;5.10;99.90;;;;;;5101555;27;20220;-84
2023/01/16 03:48:48;;;;;;;11.05;4.07;;;5.10;99.90;;;;;;5111570;27;20239;-83
2023/01/16 03:51:21;;;;;;;9.18;3.40;;;5.10;99.90;;;;;;5095857;27;20185;-83
2023/01/16 03:53:56;;;;;;;9.38;2.95;;;5.00;99.90;;;;;;5110570;27;20242;-84
2023/01/16 03:56:45;;;;;;;9.40;3.45;;;5.00;99.90;;;;;;5114277;27;20180;-83
2023/01/16 03:59:11;;;;;;;9.23;3.50;;;5.00;99.90;;;;;;5083892;27;20284;-83
2023/01/16 04:02:19;;;;;;;8.63;3.47;;;5.00;99.90;;;;;;5110115;27;20177;-83
2023/01/16 04:04:54;;;;;;;11.57;3.72;;;4.90;99.90;;;;;;5103637;27;20195;-82
2023/01/16 04:07:35;;;;;;;9.48;3.35;;;4.90;99.90;;;;;;5109717;27;20205;-83
2023/01/16 04:10:11;;;;;;;14.20;3.72;;;4.90;99.90;;;;;;5111471;27;20765;-85
2023/01/16 04:12:42;;;;;;;7.65;3.40;;;4.90;99.90;;;;;;5111179;27;20187;-83
2023/01/16 04:15:09;;;;;;;7.78;3.78;;;4.90;99.90;;;;;;5112640;27;20390;-83
2023/01/16 04:17:38;;;;;;;8.70;4.10;;;5.00;99.90;;;;;;5110488;27;20266;-83
2023/01/16 04:20:05;;;;;;;6.40;3.92;;;5.00;99.90;;;;;;5113137;27;20195;-84
2023/01/16 04:22:31;;;;;;;14.52;4.50;;;5.00;99.90;;;;;;5109641;27;20191;-83
2023/01/16 04:25:00;;;;;;;8.43;4.00;;;5.00;99.90;;;;;;5108219;27;20865;-82
2023/01/16 04:27:26;;;;;;;11.50;4.22;;;5.00;99.90;;;;;;5108269;27;20257;-83
2023/01/16 04:29:51;;;;;;;9.35;4.43;;;5.10;99.90;;;;;;5074346;27;20180;-82
2023/01/16 04:32:17;;;;;;;7.07;3.83;;;5.10;99.90;;;;;;5090739;27;20949;-83
2023/01/16 04:34:43;;;;;;;10.50;4.43;;;5.10;99.90;;;;;;5097632;27;20185;-81
2023/01/16 04:37:13;;;;;;;7.82;4.25;;;5.10;99.90;;;;;;5112655;27;20199;-82
2023/01/16 04:39:40;;;;;;;8.30;4.40;;;5.10;99.90;;;;;;5110564;27;20276;-82
2023/01/16 04:42:07;;;;;;;10.65;4.97;;;5.10;99.90;;;;;;5106892;27;20181;-83
2023/01/16 04:44:32;;;;;;;9.65;4.95;;;5.10;99.90;;;;;;5109820;27;20774;-83
2023/01/16 04:46:58;;;;;;;13.02;4.80;;;5.10;99.90;;;;;;5110671;27;20216;-83
2023/01/16 04:49:24;;;;;;;12.95;4.82;;;5.10;99.90;;;;;;5108422;27;20615;-82
2023/01/16 04:51:50;;;;;;;9.70;4.80;;;5.10;99.90;;;;;;5079138;27;20193;-81
2023/01/16 04:54:17;;;;;;;10.82;5.20;;;5.10;99.90;;;;;;5109032;27;20191;-82
2023/01/16 04:56:43;;;;;;;11.63;5.10;;;5.00;99.90;;;;;;5110192;27;20188;-84
2023/01/16 04:59:09;;;;;;;14.88;5.20;;;5.10;99.90;;;;;;5095319;27;20249;-81
2023/01/16 05:01:37;;;;;;;11.27;5.68;;;5.10;99.90;;;;;;5106727;27;20194;-82
2023/01/16 05:04:07;;;;;;;11.82;5.40;;;5.20;99.90;;;;;;5119285;27;20192;-82
2023/01/16 05:06:34;;;;;;;11.93;6.13;;;5.20;99.90;;;;;;5107834;27;20272;-81
2023/01/16 05:09:00;;;;;;;14.00;6.47;;;5.20;99.90;;;;;;5076383;27;20532;-83
2023/01/16 05:11:26;;;;;;;13.68;6.22;;;5.10;99.90;;;;;;5108564;27;20189;-81
2023/01/16 05:13:52;;;;;;;14.88;6.68;;;5.10;99.90;;;;;;5108737;27;21678;-81
2023/01/16 05:16:18;;;;;;;15.93;7.10;;;5.20;99.90;;;;;;5079717;27;20627;-82
2023/01/16 05:18:44;;;;;;;14.95;6.75;;;5.20;99.90;;;;;;5107249;27;20181;-83
2023/01/16 05:21:09;;;;;;;12.77;7.20;;;5.20;99.90;;;;;;5106238;28;20647;-83
2023/01/16 05:23:37;;;;;;;17.17;7.43;;;5.10;99.90;;;;;;5077639;27;20303;-82
2023/01/16 05:26:03;;;;;;;17.30;7.25;;;5.30;99.90;;;;;;5078473;28;20217;-83
2023/01/16 05:28:29;;;;;;;14.95;7.18;;;5.10;99.90;;;;;;5080431;28;20208;-83
2023/01/16 05:30:56;;;;;;;13.15;7.32;;;5.20;99.90;;;;;;5089180;28;21085;-82
2023/01/16 05:33:22;;;;;;;15.50;7.78;;;5.20;99.90;;;;;;5093128;28;20303;-81
2023/01/16 05:35:48;;;;;;;14.75;7.45;;;5.10;99.90;;;;;;5092734;28;20279;-83
2023/01/16 05:38:15;;;;;;;15.27;7.70;;;5.10;99.90;;;;;;5109398;28;20769;-82
2023/01/16 05:40:41;;;;;;;18.52;7.82;;;5.00;99.90;;;;;;5109263;28;20176;-81
2023/01/16 05:43:07;;;;;;;16.73;8.80;;;5.00;99.90;;;;;;5105518;27;20184;-82
2023/01/16 05:45:33;;;;;;;20.60;8.45;;;5.00;99.90;;;;;;5106790;28;20347;-81
2023/01/16 05:47:59;;;;;;;17.60;9.13;;;5.00;99.90;;;;;;5109849;28;20252;-84
2023/01/16 05:50:24;;;;;;;21.52;9.63;;;4.90;99.90;;;;;;5095064;28;20265;-80
2023/01/16 05:52:50;;;;;;;21.15;10.60;;;4.90;99.90;;;;;;5109696;28;20196;-83
2023/01/16 05:55:16;;;;;;;18.38;10.27;;;4.90;99.90;;;;;;5089355;28;20184;-83
2023/01/16 05:57:42;;;;;;;19.17;10.13;;;4.90;99.90;;;;;;5110260;27;20191;-81
2023/01/16 06:00:09;;;;;;;17.92;10.57;;;4.80;99.90;;;;;;5106804;28;20185;-83
2023/01/16 06:02:35;;;;;;;20.15;10.25;;;4.80;99.90;;;;;;5091214;28;20275;-80
2023/01/16 06:05:01;;;;;;;20.25;10.40;;;4.80;99.90;;;;;;5110365;28;20281;-85
2023/01/16 06:07:27;;;;;;;21.80;10.93;;;4.80;99.90;;;;;;5095470;28;20228;-83
2023/01/16 06:09:52;;;;;;;21.73;11.45;;;4.80;99.90;;;;;;5108527;28;21040;-82
2023/01/16 06:12:19;;;;;;;19.38;11.98;;;4.80;99.90;;;;;;5110992;28;20660;-82
2023/01/16 06:14:45;;;;;;;20.38;11.68;;;4.80;99.90;;;;;;5112455;28;20253;-82
2023/01/16 06:17:14;;;;;;;20.77;12.07;;;4.70;99.90;;;;;;5094793;28;20632;-81
2023/01/16 06:19:40;;;;;;;17.17;10.88;;;4.80;99.90;;;;;;5094216;28;20840;-81
2023/01/16 06:22:06;;;;;;;20.60;11.73;;;4.80;99.90;;;;;;5110661;28;20208;-83
2023/01/16 06:24:32;;;;;;;21.92;12.30;;;4.70;99.90;;;;;;5092834;28;20204;-83
2023/01/16 06:26:58;;;;;;;22.50;11.88;;;4.70;99.90;;;;;;5106684;28;20224;-85
2023/01/16 06:29:24;;;;;;;22.02;11.98;;;4.70;99.90;;;;;;5099662;28;20192;-82
2023/01/16 06:31:50;;;;;;;23.27;12.80;;;4.70;99.90;;;;;;5105340;28;20185;-83
2023/01/16 06:34:16;;;;;;;24.02;13.00;;;4.70;99.90;;;;;;5110496;28;20185;-81
2023/01/16 06:36:42;;;;;;;21.48;13.38;;;4.70;99.90;;;;;;5108378;28;20238;-83
2023/01/16 06:39:11;;;;;;;20.58;12.45;;;4.70;99.90;;;;;;5098920;27;20186;-82
2023/01/16 06:41:37;;;;;;;26.25;13.52;;;4.70;99.90;;;;;;5108794;28;20276;-82
2023/01/16 06:44:03;;;;;;;23.02;14.23;;;4.70;99.90;;;;;;5095071;27;20196;-81
2023/01/16 06:46:29;;;;;;;24.42;13.48;;;4.70;99.90;;;;;;5113520;27;20224;-84
2023/01/16 06:48:55;;;;;;;22.75;13.52;;;4.70;99.90;;;;;;5109799;27;20703;-85
2023/01/16 06:51:21;;;;;;;22.70;13.27;;;4.70;99.90;;;;;;5109514;27;20184;-82
2023/01/16 06:53:46;;;;;;;25.00;13.13;;;4.70;99.90;;;;;;5111595;27;20203;-81
2023/01/16 06:56:12;;;;;;;25.15;13.32;;;4.70;99.90;;;;;;5100097;27;20199;-82
2023/01/16 06:58:38;;;;;;;24.35;13.02;;;4.70;99.90;;;;;;5087316;27;20191;-81
2023/01/16 07:01:06;;;;;;;20.95;12.23;;;4.70;99.90;;;;;;5095277;27;20251;-84
2023/01/16 07:03:32;;;;;;;18.92;9.27;;;4.70;99.90;;;;;;5112301;27;20181;-85
2023/01/16 07:05:58;;;;;;;21.05;11.27;;;4.60;99.90;;;;;;5113108;27;20300;-87
2023/01/16 07:08:24;;;;;;;21.98;11.27;;;4.60;99.90;;;;;;5111787;27;20233;-79
2023/01/16 07:10:49;;;;;;;24.77;10.95;;;4.60;99.90;;;;;;5111598;27;21244;-80
2023/01/16 07:13:16;;;;;;;22.10;11.38;;;4.60;99.90;;;;;;5109007;27;20760;-78
2023/01/16 07:24:08;;;;;;;25.85;14.45;;;4.50;99.90;;;;;;5113003;27;20177;-77
2023/01/16 07:26:40;;;;;;;27.75;13.90;;;4.50;99.90;;;;;;5111197;27;20220;-79
2023/01/16 07:29:06;;;;;;;26.77;13.52;;;4.50;99.90;;;;;;5113195;27;20188;-85
2023/01/16 07:31:33;;;;;;;22.10;11.13;;;4.50;99.90;;;;;;5108507;27;20549;-78
2023/01/16 07:33:59;;;;;;;23.05;10.75;;;4.50;99.90;;;;;;5116471;27;20551;-82
2023/01/16 07:36:25;;;;;;;20.95;10.68;;;4.50;99.90;;;;;;5111677;27;20199;-79
2023/01/16 07:38:51;;;;;;;20.08;10.02;;;4.50;99.90;;;;;;5113302;27;20603;-77
2023/01/16 07:41:16;;;;;;;23.70;10.98;;;4.50;99.90;;;;;;5107808;27;20196;-80
2023/01/16 07:43:42;;;;;;;21.70;10.93;;;4.50;99.90;;;;;;5107097;27;20832;-80
2023/01/16 07:46:08;;;;;;;17.83;10.75;;;4.50;99.90;;;;;;5108747;27;20268;-79
2023/01/16 07:48:34;;;;;;;17.23;9.98;;;4.50;99.90;;;;;;5112576;27;20228;-80
2023/01/16 07:51:00;;;;;;;23.38;10.85;;;4.50;99.90;;;;;;5108938;27;20245;-79
2023/01/16 07:53:28;;;;;;;20.58;10.48;;;4.50;99.90;;;;;;5112539;27;20567;-81
2023/01/16 07:55:57;;;;;;;22.75;10.80;;;4.50;99.90;;;;;;5108235;27;20245;-78
2023/01/16 07:58:23;;;;;;;16.92;9.27;;;4.50;99.90;;;;;;5114270;27;20275;-79
2023/01/16 08:00:52;;;;;;;20.55;10.05;;;4.50;99.90;;;;;;5109735;27;20648;-82
2023/01/16 08:03:17;;;;;;;24.10;10.02;;;4.40;99.90;;;;;;5112222;27;20176;-76
2023/01/16 08:05:43;;;;;;;15.82;9.88;;;4.40;99.90;;;;;;5113433;27;20232;-81
2023/01/16 08:08:10;;;;;;;20.05;10.10;;;4.40;99.90;;;;;;5106475;27;20351;-81
2023/01/16 08:10:36;;;;;;;20.27;9.60;;;4.40;99.90;;;;;;5108145;27;20284;-80
2023/01/16 08:13:01;;;;;;;15.35;8.68;;;4.30;99.90;;;;;;5093677;27;20188;-84
2023/01/16 08:15:27;;;;;;;16.50;8.57;;;4.30;99.90;;;;;;5103417;27;20672;-79
2023/01/16 08:17:53;;;;;;;21.67;8.63;;;4.30;99.90;;;;;;5111091;27;20181;-82
2023/01/16 08:20:19;;;;;;;17.40;8.93;;;4.30;99.90;;;;;;5113740;27;20739;-81
2023/01/16 08:22:47;;;;;;;15.68;8.68;;;4.30;99.90;;;;;;5115602;27;20191;-79
2023/01/16 08:25:14;;;;;;;17.45;8.63;;;4.40;99.90;;;;;;5116989;27;20628;-79
2023/01/16 08:27:41;;;;;;;15.18;8.18;;;4.40;99.90;;;;;;5091442;27;20216;-84
2023/01/16 08:30:08;;;;;;;17.75;8.73;;;4.40;99.90;;;;;;5109480;27;20238;-80
2023/01/16 08:32:33;;;;;;;18.42;8.98;;;4.40;99.90;;;;;;5096377;27;20192;-79
2023/01/16 08:34:59;;;;;;;16.42;8.52;;;4.50;99.90;;;;;;5110070;27;20726;-84
2023/01/16 08:37:25;;;;;;;14.93;8.02;;;4.50;99.90;;;;;;5078772;27;20241;-79
2023/01/16 08:39:51;;;;;;;16.50;9.00;;;4.40;99.90;;;;;;5111149;27;20172;-79
2023/01/16 08:53:13;;;;;;;16.73;8.15;;;4.50;99.90;;;;;;5112106;27;20638;-77
2023/01/16 08:55:39;;;;;;;16.30;8.88;;;4.50;99.90;;;;;;5111244;27;20181;-78
2023/01/16 08:58:05;;;;;;;17.17;8.68;;;4.40;99.90;;;;;;5112721;27;20528;-81
2023/01/16 09:00:31;;;;;;;18.10;8.98;;;4.50;99.90;;;;;;5110015;27;20623;-79
2023/01/16 09:02:59;;;;;;;16.20;9.30;;;4.50;99.90;;;;;;5115393;27;20173;-85
2023/01/16 09:05:26;;;;;;;20.52;8.32;;;4.60;99.90;;;;;;5111979;27;20215;-78
2023/01/16 09:07:51;;;;;;;14.10;8.40;;;4.60;99.90;;;;;;5110985;27;20192;-85
2023/01/16 09:10:17;;;;;;;21.25;8.88;;;4.60;99.90;;;;;;5110738;27;20330;-80
2023/01/16 09:15:28;;;;;;;14.07;9.00;;;4.60;99.90;;;;;;5109673;27;20185;-83
2023/01/16 09:17:54;;;;;;;14.55;8.70;;;4.60;99.90;;;;;;5107991;27;20189;-78
2023/01/16 09:20:20;;;;;;;17.75;8.48;;;4.70;99.90;;;;;;5092167;28;20207;-77
2023/01/16 09:22:46;;;;;;;19.10;8.77;;;4.70;99.90;;;;;;5109210;27;20209;-81
2023/01/16 09:25:12;;;;;;;18.23;8.35;;;4.70;99.90;;;;;;5113761;27;20263;-83
2023/01/16 09:27:37;;;;;;;20.80;8.48;;;4.70;99.90;;;;;;5109464;27;20220;-80
2023/01/16 09:30:05;;;;;;;18.50;8.75;;;4.70;99.90;;;;;;5076066;27;20212;-79
2023/01/16 09:32:30;;;;;;;16.23;8.98;;;4.70;99.90;;;;;;5112454;27;22564;-85
2023/01/16 09:34:56;;;;;;;15.63;7.45;;;4.70;99.90;;;;;;5109059;27;20180;-82
2023/01/16 09:37:22;;;;;;;19.63;8.18;;;4.80;99.90;;;;;;5099455;27;20188;-79
2023/01/16 09:39:48;;;;;;;14.85;7.70;;;4.80;99.90;;;;;;5097636;28;20564;-81
2023/01/16 09:45:30;;;;;;;13.88;7.82;;;4.80;99.90;;;;;;5118586;28;20173;-79
2023/01/16 09:48:15;;;;;;;12.32;6.85;;;4.80;99.90;;;;;;5116891;28;20177;-79
2023/01/16 09:50:54;;;;;;;12.70;6.90;;;4.80;99.90;;;;;;5110736;28;20219;-78
2023/01/16 09:59:20;;;;;;;12.45;6.60;;;4.80;99.90;;;;;;5117163;28;20206;-81
2023/01/16 10:01:55;;;;;;;17.52;6.20;;;4.90;99.90;;;;;;5109012;28;20219;-83
2023/01/16 10:04:23;;;;;;;13.68;6.43;;;4.90;99.90;;;;;;5114185;28;20202;-77
2023/01/16 10:07:18;;;;;;;14.45;6.13;;;4.90;99.90;;;;;;5113236;27;20285;-84
2023/01/16 10:09:51;;;;;;;11.73;5.95;;;4.90;99.90;;;;;;5112084;28;20179;-81
2023/01/16 10:12:18;;;;;;;12.32;6.03;;;4.90;99.90;;;;;;5110251;28;20556;-82
2023/01/16 10:14:58;;;;;;;14.52;5.90;;;4.90;99.90;;;;;;5112652;28;20181;-80
2023/01/16 10:17:41;;;;;;;9.82;5.80;;;4.90;99.90;;;;;;5114300;27;20245;-79
2023/01/16 10:20:27;;;;;;;12.23;5.55;;;5.00;99.90;;;;;;5112855;27;20263;-84
2023/01/16 10:22:56;;;;;;;37.78;7.68;;;4.90;99.90;;;;;;5115934;27;20191;-92
2023/01/16 10:25:58;;;;;;;28.65;7.50;;;5.00;99.90;;;;;;5095623;27;20823;-80
2023/01/16 10:28:42;;;;;;;15.98;5.60;;;5.00;99.90;;;;;;5096885;27;20665;-82
2023/01/16 10:31:16;;;;;;;17.58;6.10;;;5.00;99.90;;;;;;5110200;27;20193;-81
2023/01/16 10:33:48;;;;;;;9.00;5.15;;;5.00;99.90;;;;;;5114214;27;20169;-80
2023/01/16 10:36:17;;;;;;;11.40;4.82;;;5.00;99.90;;;;;;5114669;27;20310;-81
2023/01/16 10:38:47;;;;;;;10.80;5.47;;;5.00;99.90;;;;;;5113319;27;20212;-82
2023/01/16 10:50:24;;;;;;;12.27;3.72;;;5.10;99.90;;;;;;5113111;27;20198;-79
2023/01/16 10:52:50;;;;;;;8.93;3.70;;;5.00;99.90;;;;;;5112607;27;20188;-82
2023/01/16 10:55:17;;;;;;;6.95;3.90;;;5.00;99.90;;;;;;5114928;27;20181;-82
2023/01/16 10:57:55;;;;;;;9.75;4.00;;;5.00;99.90;;;;;;5112283;27;20195;-78
2023/01/16 11:00:29;;;;;;;7.18;3.47;;;5.00;99.90;;;;;;5113944;27;20187;-78
2023/01/16 11:03:18;;;;;;;10.40;3.97;;;5.00;99.90;;;;;;5114276;27;20171;-77
2023/01/16 11:05:44;;;;;;;9.00;3.88;;;5.00;99.90;;;;;;5111341;27;20279;-81
2023/01/16 11:08:10;;;;;;;10.23;3.70;;;5.00;99.90;;;;;;5111605;27;20184;-83
2023/01/16 11:10:38;;;;;;;7.90;3.38;;;5.00;99.90;;;;;;5112734;27;20188;-80
2023/01/16 11:18:46;;;;;;;7.07;2.90;;;4.80;99.90;;;;;;5113823;27;20180;-78
2023/01/16 11:21:32;;;;;;;3.78;2.00;;;4.80;99.90;;;;;;5111716;27;20188;-78
2023/01/16 11:24:11;;;;;;;4.18;2.40;;;4.80;99.90;;;;;;5110991;27;20785;-80
2023/01/16 11:26:37;;;;;;;3.35;2.17;;;4.70;99.90;;;;;;5110460;27;20877;-82
2023/01/16 11:29:04;;;;;;;4.70;2.38;;;4.70;99.90;;;;;;5113528;27;20230;-79
2023/01/16 11:31:30;;;;;;;6.53;1.95;;;4.70;99.90;;;;;;5110786;27;20216;-81
2023/01/16 11:34:04;;;;;;;3.97;2.00;;;4.70;99.90;;;;;;5112210;27;20204;-81
2023/01/16 11:36:33;;;;;;;4.75;2.22;;;4.60;99.90;;;;;;5110819;27;20189;-81
2023/01/16 11:39:04;;;;;;;3.70;2.50;;;4.60;99.90;;;;;;5112240;27;20177;-80
2023/01/16 11:41:36;;;;;;;3.95;2.20;;;4.60;99.90;;;;;;5111541;27;20184;-82
2023/01/16 11:47:26;;;;;;;4.30;2.47;;;4.50;99.90;;;;;;5095391;27;20694;-78
2023/01/16 11:49:53;;;;;;;2.28;1.95;;;4.50;99.90;;;;;;5111130;27;20224;-82
2023/01/16 11:52:27;;;;;;;4.28;2.40;;;4.50;99.90;;;;;;5110324;27;20208;-81
2023/01/16 11:54:57;;;;;;;5.15;2.50;;;4.50;99.90;;;;;;5112326;27;20881;-82
2023/01/16 11:57:29;;;;;;;3.22;2.47;;;4.50;99.90;;;;;;5109212;27;20185;-83
2023/01/16 12:00:04;;;;;;;2.95;2.30;;;4.50;99.90;;;;;;5110907;27;20184;-83
2023/01/16 12:03:08;;;;;;;7.30;1.83;;;4.50;99.90;;;;;;5111601;27;20184;-80
2023/01/16 12:06:03;;;;;;;4.53;2.42;;;4.50;99.90;;;;;;5111982;27;20169;-81
2023/01/16 12:08:53;;;;;;;3.10;1.80;;;4.50;99.90;;;;;;5115275;27;20218;-81
2023/01/16 12:11:51;;;;;;;7.00;2.60;;;4.50;99.90;;;;;;5096027;27;20188;-83
2023/01/16 12:14:33;;;;;;;4.05;2.30;;;4.50;99.90;;;;;;5112492;27;20592;-83
2023/01/16 12:17:05;;;;;;;3.17;1.92;;;4.50;99.90;;;;;;5112704;27;20197;-79
2023/01/16 12:19:53;;;;;;;3.05;1.77;;;4.50;99.90;;;;;;5110365;27;20645;-82
2023/01/16 12:22:37;;;;;;;3.15;2.08;;;4.50;99.90;;;;;;5109890;27;20172;-81
2023/01/16 12:25:22;;;;;;;4.03;2.17;;;4.50;99.90;;;;;;5109051;27;20205;-81
2023/01/16 12:28:36;;;;;;;3.38;1.90;;;4.50;99.90;;;;;;5111554;27;20284;-79
2023/01/16 12:31:37;;;;;;;3.55;2.08;;;4.50;99.90;;;;;;5100958;27;20624;-78
2023/01/16 12:34:29;;;;;;;4.63;2.20;;;4.60;99.90;;;;;;5113779;27;20203;-78
2023/01/16 12:37:32;;;;;;;4.20;2.13;;;4.60;99.90;;;;;;5070590;27;20208;-79
2023/01/16 12:39:58;;;;;;;5.38;2.05;;;4.60;99.90;;;;;;5111977;27;20191;-83
2023/01/16 12:43:21;;;;;;;4.90;2.60;;;4.60;99.90;;;;;;5108892;27;20208;-82
2023/01/16 12:45:52;;;;;;;3.03;2.05;;;4.60;99.90;;;;;;5058202;27;20197;-80
2023/01/16 12:48:36;;;;;;;3.58;2.30;;;4.60;99.90;;;;;;5111010;27;20180;-79
2023/01/16 12:51:14;;;;;;;5.18;2.58;;;4.60;99.90;;;;;;5110327;27;20185;-81
2023/01/16 12:54:07;;;;;;;4.60;2.53;;;4.60;99.90;;;;;;5113462;27;20184;-83
2023/01/16 12:56:52;;;;;;;4.47;2.80;;;4.60;99.90;;;;;;5109341;27;20176;-82
2023/01/16 12:59:51;;;;;;;7.25;3.08;;;4.70;99.90;;;;;;5110497;27;20321;-79
2023/01/16 13:02:20;;;;;;;4.53;2.80;;;4.70;99.90;;;;;;5108884;27;20201;-82
2023/01/16 13:05:17;;;;;;;6.00;2.53;;;4.70;99.90;;;;;;5111148;27;20192;-82
2023/01/16 13:08:01;;;;;;;4.13;2.90;;;4.70;99.90;;;;;;5112620;27;20228;-81
2023/01/16 13:13:52;;;;;;;4.82;2.47;;;4.80;99.90;;;;;;5113430;27;20268;-76
2023/01/16 13:16:42;;;;;;;11.73;2.80;;;4.80;99.90;;;;;;5108968;27;20374;-82
2023/01/16 13:19:23;;;;;;;4.43;3.03;;;4.80;99.90;;;;;;5106301;27;20231;-80
2023/01/16 13:21:55;;;;;;;5.85;2.70;;;4.80;99.90;;;;;;5107967;27;20180;-80
2023/01/16 13:24:46;;;;;;;5.32;2.60;;;4.90;99.90;;;;;;5111900;27;20246;-77
2023/01/16 13:27:17;;;;;;;4.88;2.97;;;4.90;99.90;;;;;;5110971;27;20204;-84
2023/01/16 13:29:52;;;;;;;6.63;3.22;;;4.90;99.90;;;;;;5110662;27;20342;-76
2023/01/16 13:32:21;;;;;;;5.90;3.38;;;4.90;99.90;;;;;;5110987;27;21399;-82
2023/01/16 13:34:52;;;;;;;7.07;3.50;;;4.90;99.90;;;;;;5094780;28;20211;-80
2023/01/16 13:37:54;;;;;;;5.85;3.60;;;4.80;99.90;;;;;;5109883;27;20303;-82
2023/01/16 13:40:25;;;;;;;5.28;3.40;;;4.90;99.90;;;;;;5112193;28;20184;-80
2023/01/16 13:46:01;;;;;;;7.45;3.97;;;4.90;99.90;;;;;;5109083;28;20220;-76
2023/01/16 13:48:33;;;;;;;9.02;4.90;;;4.90;99.90;;;;;;5110210;28;20212;-76
2023/01/16 13:51:06;;;;;;;7.68;4.80;;;5.00;99.90;;;;;;5067588;28;20191;-76
2023/01/16 13:53:36;;;;;;;9.35;5.10;;;5.00;99.90;;;;;;5067783;28;20688;-82
2023/01/16 13:56:06;;;;;;;7.25;5.18;;;4.90;99.90;;;;;;5070276;28;20603;-80
2023/01/16 13:58:36;;;;;;;8.07;5.10;;;5.00;99.90;;;;;;5074633;28;20265;-83
2023/01/16 14:01:04;;;;;;;7.65;5.22;;;5.00;99.90;;;;;;5079971;28;20193;-78
2023/01/16 14:03:32;;;;;;;8.27;5.47;;;5.00;99.90;;;;;;5080015;28;20273;-78
2023/01/16 14:06:11;;;;;;;6.32;5.18;;;5.10;99.90;;;;;;5069162;28;20210;-79
2023/01/16 14:09:08;;;;;;;5.30;4.07;;;5.00;99.90;;;;;;5074608;28;20170;-80
2023/01/16 14:11:34;;;;;;;8.68;4.43;;;5.10;99.90;;;;;;5070790;28;20174;-76
2023/01/16 14:17:12;;;;;;;9.70;3.95;;;5.10;99.90;;;;;;5076818;28;20633;-83